createdAt,value
2023-05-12T00:01:41.967Z,76.71
2023-05-12T00:04:12.394Z,74.72
2023-05-12T00:06:40.808Z,77.51
2023-05-12T00:09:09.692Z,76.96
2023-05-12T00:11:38.486Z,76.59
2023-05-12T00:14:07.183Z,76.80
2023-05-12T00:16:37.706Z,76.13
2023-05-12T00:19:06.907Z,76.38
2023-05-12T00:21:36.568Z,75.78
2023-05-12T00:24:12.377Z,74.94
2023-05-12T00:26:41.264Z,74.98
2023-05-12T00:29:09.686Z,74.89
2023-05-12T00:31:38.565Z,75.07
2023-05-12T00:34:07.290Z,75.18
2023-05-12T00:36:39.659Z,75.73
2023-05-12T00:39:08.399Z,76.76
2023-05-12T00:41:36.742Z,78.85
2023-05-12T00:44:05.236Z,78.57
2023-05-12T00:46:34.015Z,77.48
2023-05-12T00:49:02.303Z,77.90
2023-05-12T00:51:30.964Z,77.66
2023-05-12T00:54:03.906Z,79.14
2023-05-12T00:56:35.357Z,79.80
2023-05-12T00:59:04.838Z,79.67
2023-05-12T01:01:33.578Z,76.96
2023-05-12T01:04:02.242Z,76.87
2023-05-12T01:06:34.373Z,78.15
2023-05-12T01:09:07.300Z,78.50
2023-05-12T01:11:38.252Z,77.69
2023-05-12T01:14:06.884Z,78.68
2023-05-12T01:16:37.081Z,78.87
2023-05-12T01:19:06.576Z,79.05
2023-05-12T01:21:35.174Z,79.67
2023-05-12T01:24:04.313Z,78.51
2023-05-12T01:26:36.382Z,79.50
2023-05-12T01:29:05.553Z,81.22
2023-05-12T01:31:33.878Z,80.61
2023-05-12T01:34:02.546Z,80.69
2023-05-12T01:36:31.604Z,80.13
2023-05-12T01:39:00.287Z,81.34
2023-05-12T01:41:30.906Z,80.98
2023-05-12T01:44:01.017Z,78.65
2023-05-12T01:46:29.554Z,81.20
2023-05-12T01:48:58.754Z,79.42
2023-05-12T01:51:29.937Z,81.42
2023-05-12T01:53:58.928Z,78.65
2023-05-12T01:56:28.933Z,77.81
2023-05-12T01:58:57.536Z,78.71
2023-05-12T02:01:28.849Z,80.21
2023-05-12T02:03:57.912Z,83.68
2023-05-12T02:06:29.089Z,81.73
2023-05-12T02:08:58.215Z,80.14
2023-05-12T02:11:27.034Z,81.59
2023-05-12T02:13:55.536Z,82.77
2023-05-12T02:16:24.720Z,84.20
2023-05-12T02:18:56.763Z,81.33
2023-05-12T02:21:28.123Z,81.73
2023-05-12T02:23:57.185Z,80.41
2023-05-12T02:26:25.852Z,82.47
2023-05-12T02:28:54.547Z,82.85
2023-05-12T02:31:23.350Z,81.73
2023-05-12T02:33:52.679Z,85.27
2023-05-12T02:36:22.611Z,85.37
2023-05-12T02:38:51.577Z,84.46
2023-05-12T02:41:20.016Z,83.97
2023-05-12T02:43:53.238Z,82.81
2023-05-12T02:46:21.617Z,84.96
2023-05-12T02:48:56.600Z,84.17
2023-05-12T02:51:26.289Z,83.56
2023-05-12T02:53:54.995Z,83.89
2023-05-12T02:56:23.468Z,84.10
2023-05-12T02:58:51.881Z,85.32
2023-05-12T03:01:20.491Z,84.11
2023-05-12T03:03:49.102Z,82.43
2023-05-12T03:06:17.708Z,83.35
2023-05-12T03:08:47.656Z,86.28
2023-05-12T03:11:15.984Z,87.02
2023-05-12T03:13:44.440Z,86.18
2023-05-12T03:16:13.062Z,85.32
2023-05-12T03:18:44.541Z,85.90
2023-05-12T03:21:13.215Z,86.00
2023-05-12T03:23:41.545Z,85.43
2023-05-12T03:26:11.200Z,83.85
2023-05-12T03:28:43.318Z,82.44
2023-05-12T03:31:14.129Z,85.50
2023-05-12T03:33:42.833Z,85.35
2023-05-12T03:36:13.521Z,87.29
2023-05-12T03:38:41.860Z,88.26
2023-05-12T03:41:11.843Z,87.67
2023-05-12T03:43:40.616Z,89.73
2023-05-12T03:46:09.559Z,88.32
2023-05-12T03:48:38.420Z,88.13
2023-05-12T03:51:06.772Z,89.33
2023-05-12T03:53:35.105Z,87.06
2023-05-12T03:56:06.882Z,88.98
2023-05-12T03:58:36.577Z,88.79
2023-05-12T04:01:06.186Z,89.83
2023-05-12T04:03:34.930Z,88.55
2023-05-12T04:06:03.650Z,87.09
2023-05-12T04:08:35.207Z,89.78
2023-05-12T04:11:04.175Z,88.05
2023-05-12T04:13:32.982Z,86.74
2023-05-12T04:16:02.678Z,89.71
2023-05-12T04:18:33.589Z,91.35
2023-05-12T04:21:05.479Z,89.12
2023-05-12T04:23:34.198Z,85.90
2023-05-12T04:26:04.369Z,88.77
2023-05-12T04:28:33.093Z,89.55
2023-05-12T04:31:05.075Z,92.09
2023-05-12T04:33:33.553Z,91.05
2023-05-12T04:36:02.576Z,90.34
2023-05-12T04:38:33.957Z,89.11
2023-05-12T04:41:02.638Z,88.31
2023-05-12T04:46:06.550Z,91.25
2023-05-12T04:48:34.942Z,91.13
2023-05-12T04:51:03.709Z,91.09
2023-05-12T04:53:34.730Z,90.52
2023-05-12T04:56:03.466Z,91.23
2023-05-12T04:58:32.638Z,89.46
2023-05-12T05:01:01.293Z,92.33
2023-05-12T05:03:33.589Z,89.34
2023-05-12T05:06:02.245Z,89.63
2023-05-12T05:08:30.602Z,89.46
2023-05-12T05:10:58.990Z,91.50
2023-05-12T05:13:30.496Z,89.44
2023-05-12T05:15:59.307Z,87.97
2023-05-12T05:18:29.183Z,91.47
2023-05-12T05:20:59.554Z,88.59
2023-05-12T05:23:28.391Z,90.41
2023-05-12T05:25:57.078Z,89.89
2023-05-12T05:28:28.529Z,88.62
2023-05-12T05:30:57.081Z,88.38
2023-05-12T05:33:25.640Z,87.47
2023-05-12T05:35:54.025Z,89.93
2023-05-12T05:38:24.107Z,91.39
2023-05-12T05:40:54.029Z,91.01
2023-05-12T05:43:23.475Z,89.90
2023-05-12T05:45:52.105Z,90.21
2023-05-12T05:48:24.017Z,90.71
2023-05-12T05:50:52.902Z,89.63
2023-05-12T05:53:22.650Z,89.91
2023-05-12T05:55:52.715Z,86.41
2023-05-12T05:58:21.352Z,85.87
2023-05-12T06:00:49.805Z,86.83
2023-05-12T06:03:18.481Z,86.25
2023-05-12T06:05:46.883Z,86.74
2023-05-12T06:08:15.555Z,85.30
2023-05-12T06:10:44.278Z,82.94
2023-05-12T06:13:13.990Z,83.47
2023-05-12T06:15:42.297Z,82.43
2023-05-12T06:18:13.281Z,85.05
2023-05-12T06:20:42.312Z,86.26
2023-05-12T06:23:10.925Z,85.54
2023-05-12T06:25:39.685Z,85.71
2023-05-12T06:28:10.147Z,86.57
2023-05-12T06:30:40.643Z,87.91
2023-05-12T06:33:12.700Z,87.77
2023-05-12T06:35:43.642Z,86.76
2023-05-12T06:38:19.787Z,84.14
2023-05-12T06:40:48.297Z,83.81
2023-05-12T06:43:18.912Z,84.54
2023-05-12T06:45:49.231Z,83.61
2023-05-12T06:48:17.751Z,86.46
2023-05-12T06:50:46.593Z,86.02
2023-05-12T06:53:15.203Z,84.71
2023-05-12T06:55:44.214Z,85.19
2023-05-12T06:58:12.514Z,85.15
2023-05-12T07:00:43.394Z,84.88
2023-05-12T07:03:13.138Z,86.83
2023-05-12T07:05:42.016Z,84.78
2023-05-12T07:08:10.475Z,84.97
2023-05-12T07:10:40.075Z,85.60
2023-05-12T07:13:08.682Z,83.52
2023-05-12T07:15:36.989Z,86.02
2023-05-12T07:18:05.318Z,86.29
2023-05-12T07:20:39.060Z,84.99
2023-05-12T07:23:12.729Z,82.21
2023-05-12T07:25:41.341Z,85.03
2023-05-12T07:28:09.706Z,83.31
2023-05-12T07:30:38.750Z,81.39
2023-05-12T07:33:08.637Z,82.37
2023-05-12T07:35:40.807Z,80.79
2023-05-12T07:38:11.435Z,79.64
2023-05-12T07:40:43.191Z,81.68
2023-05-12T07:43:11.902Z,84.32
2023-05-12T07:45:40.233Z,82.02
2023-05-12T07:48:08.756Z,81.70
2023-05-12T07:50:41.723Z,81.40
2023-05-12T07:53:10.085Z,80.83
2023-05-12T07:55:38.798Z,80.84
2023-05-12T07:58:07.065Z,81.18
2023-05-12T08:00:35.386Z,81.17
2023-05-12T08:03:04.327Z,82.15
2023-05-12T08:05:32.724Z,80.61
2023-05-12T08:08:02.786Z,80.78
2023-05-12T08:10:32.659Z,80.63
2023-05-12T08:13:00.951Z,80.40
2023-05-12T08:15:29.444Z,79.57
2023-05-12T08:17:58.159Z,78.43
2023-05-12T08:20:26.774Z,77.69
2023-05-12T08:22:57.139Z,76.89
2023-05-12T08:25:30.562Z,75.92
2023-05-12T08:27:59.854Z,75.77
2023-05-12T08:30:28.556Z,75.21
2023-05-12T08:32:57.100Z,76.52
2023-05-12T08:35:25.697Z,72.23
2023-05-12T08:37:56.615Z,72.81
2023-05-12T08:40:28.616Z,74.80
2023-05-12T08:43:01.057Z,75.17
2023-05-12T08:45:30.321Z,73.16
2023-05-12T08:47:59.115Z,73.75
2023-05-12T08:50:27.532Z,73.43
2023-05-12T08:52:55.824Z,74.48
2023-05-12T08:55:31.776Z,71.50
2023-05-12T08:58:05.873Z,71.76
2023-05-12T09:00:35.074Z,70.61
2023-05-12T09:03:03.681Z,70.92
2023-05-12T09:05:32.054Z,69.55
2023-05-12T09:08:01.107Z,68.05
2023-05-12T09:13:02.945Z,69.65
2023-05-12T09:15:34.775Z,69.32
2023-05-12T09:18:03.425Z,68.78
2023-05-12T09:20:32.239Z,69.53
2023-05-12T09:23:00.868Z,70.16
2023-05-12T09:25:29.379Z,69.17
2023-05-12T09:27:57.932Z,70.00
2023-05-12T09:30:30.349Z,70.54
2023-05-12T09:33:09.534Z,70.83
2023-05-12T09:35:44.429Z,69.76
2023-05-12T09:38:14.411Z,70.55
2023-05-12T09:40:43.382Z,70.16
2023-05-12T09:43:14.386Z,69.71
2023-05-12T09:45:46.660Z,71.18
2023-05-12T09:48:16.507Z,72.65
2023-05-12T09:50:48.689Z,73.77
2023-05-12T09:53:19.040Z,73.27
2023-05-12T09:55:48.644Z,75.69
2023-05-12T09:58:17.477Z,75.08
2023-05-12T10:03:21.914Z,72.55
2023-05-12T10:05:51.730Z,75.07
2023-05-12T10:08:22.419Z,76.95
2023-05-12T10:10:52.735Z,77.56
2023-05-12T10:13:21.292Z,80.05
2023-05-12T10:15:49.689Z,80.57
2023-05-12T10:18:19.646Z,80.21
2023-05-12T10:20:48.465Z,80.94
2023-05-12T10:23:16.844Z,78.25
2023-05-12T10:25:45.324Z,80.30
2023-05-12T10:28:16.742Z,85.57
2023-05-12T10:30:45.090Z,87.71
2023-05-12T10:33:13.704Z,88.35
2023-05-12T10:35:44.104Z,87.54
2023-05-12T10:38:15.102Z,87.49
2023-05-12T10:40:53.536Z,89.91
2023-05-12T10:43:27.215Z,90.20
2023-05-12T10:46:09.061Z,87.12
2023-05-12T10:48:37.643Z,89.84
2023-05-12T10:51:15.371Z,87.97
2023-05-12T10:53:50.168Z,87.25
2023-05-12T10:56:24.647Z,88.83
2023-05-12T10:59:10.249Z,88.44
2023-05-12T11:01:39.555Z,84.84
2023-05-12T11:04:15.587Z,85.45
2023-05-12T11:06:47.007Z,86.00
2023-05-12T11:09:17.470Z,86.75
2023-05-12T11:11:47.592Z,83.56
2023-05-12T11:14:16.488Z,81.82
2023-05-12T11:16:45.022Z,83.96
2023-05-12T11:19:13.885Z,84.25
2023-05-12T11:21:42.592Z,85.69
2023-05-12T11:24:15.449Z,86.89
2023-05-12T11:26:44.125Z,87.04
2023-05-12T11:29:12.415Z,85.37
2023-05-12T11:31:41.601Z,88.21
2023-05-12T11:34:13.424Z,87.97
2023-05-12T11:36:43.328Z,88.42
2023-05-12T11:39:16.764Z,88.12
2023-05-12T11:41:45.182Z,88.39
2023-05-12T11:44:14.509Z,87.36
2023-05-12T11:46:54.657Z,86.86
2023-05-12T11:49:23.252Z,87.83
2023-05-12T11:51:52.334Z,88.67
2023-05-12T11:54:22.157Z,86.81
2023-05-12T11:56:50.915Z,85.03
2023-05-12T11:59:29.769Z,84.37
2023-05-12T12:01:58.456Z,83.97
2023-05-12T12:04:34.711Z,86.42
2023-05-12T12:07:03.196Z,87.05
2023-05-12T12:09:33.611Z,88.35
2023-05-12T12:12:02.237Z,89.40
2023-05-12T12:14:31.690Z,90.37
2023-05-12T12:17:00.431Z,86.13
2023-05-12T12:19:28.915Z,84.66
2023-05-12T12:21:57.544Z,85.51
2023-05-12T12:24:26.364Z,86.05
2023-05-12T12:26:56.225Z,86.96
2023-05-12T12:29:26.208Z,84.64
2023-05-12T12:31:54.847Z,83.16
2023-05-12T12:34:23.218Z,82.73
2023-05-12T12:36:51.538Z,83.71
2023-05-12T12:39:20.202Z,84.38
2023-05-12T12:41:51.497Z,86.42
2023-05-12T12:44:21.799Z,86.79
2023-05-12T12:46:50.168Z,88.26
2023-05-12T12:49:18.478Z,89.52
2023-05-12T12:51:47.350Z,89.88
2023-05-12T12:54:15.953Z,92.03
2023-05-12T12:56:44.372Z,91.42
2023-05-12T12:59:13.033Z,87.93
2023-05-12T13:01:42.955Z,88.42
2023-05-12T13:04:11.343Z,87.93
2023-05-12T13:06:39.988Z,88.90
2023-05-12T13:09:09.155Z,88.01
2023-05-12T13:11:37.457Z,87.90
2023-05-12T13:14:06.097Z,88.23
2023-05-12T13:16:34.432Z,91.10
2023-05-12T13:19:04.115Z,90.25
2023-05-12T13:21:36.650Z,93.20
2023-05-12T13:24:05.168Z,89.79
2023-05-12T13:26:33.737Z,91.77
2023-05-12T13:29:02.018Z,90.14
2023-05-12T13:31:30.470Z,88.93
2023-05-12T13:33:59.137Z,89.34
2023-05-12T13:36:29.569Z,88.73
2023-05-12T13:38:58.122Z,88.30
2023-05-12T13:41:26.747Z,91.26
2023-05-12T13:43:55.080Z,90.08
2023-05-12T13:46:23.550Z,88.55
2023-05-12T13:48:52.776Z,88.75
2023-05-12T13:51:21.153Z,85.92
2023-05-12T13:53:50.828Z,85.62
2023-05-12T13:56:19.696Z,87.40
2023-05-12T13:58:48.405Z,86.58
2023-05-12T14:01:16.762Z,89.16
2023-05-12T14:03:46.070Z,88.38
2023-05-12T14:06:14.409Z,90.48
2023-05-12T14:08:42.687Z,87.71
2023-05-12T14:11:12.800Z,84.77
2023-05-12T14:13:41.119Z,90.53
2023-05-12T14:16:09.754Z,89.23
2023-05-12T14:18:38.723Z,85.54
2023-05-12T14:21:07.409Z,82.50
2023-05-12T14:23:36.568Z,81.45
2023-05-12T14:26:05.258Z,80.68
2023-05-12T14:28:34.998Z,80.33
2023-05-12T14:31:03.565Z,80.08
2023-05-12T14:33:32.601Z,79.43
2023-05-12T14:36:07.165Z,78.87
2023-05-12T14:38:36.893Z,78.88
2023-05-12T14:41:07.060Z,78.44
2023-05-12T14:43:36.696Z,79.17
2023-05-12T14:46:06.454Z,77.94
2023-05-12T14:48:34.908Z,76.49
2023-05-12T14:51:03.504Z,76.81
2023-05-12T14:53:32.285Z,77.82
2023-05-12T14:56:00.810Z,77.49
2023-05-12T14:58:29.365Z,75.30
2023-05-12T15:01:01.971Z,77.30
2023-05-12T15:03:30.441Z,77.00
2023-05-12T15:08:30.237Z,76.22
2023-05-12T15:10:58.890Z,75.73
2023-05-12T15:13:27.283Z,75.52
2023-05-12T15:15:56.718Z,75.66
2023-05-12T15:18:27.105Z,73.78
2023-05-12T15:20:55.473Z,75.13
2023-05-12T15:23:23.810Z,75.58
2023-05-12T15:25:52.349Z,75.50
2023-05-12T15:28:20.972Z,74.78
2023-05-12T15:30:55.204Z,74.56
2023-05-12T15:33:23.952Z,75.72
2023-05-12T15:35:53.652Z,75.66
2023-05-12T15:38:24.245Z,73.25
2023-05-12T15:40:52.690Z,75.19
2023-05-12T15:43:20.984Z,77.78
2023-05-12T15:45:49.585Z,76.13
2023-05-12T15:48:18.021Z,77.81
2023-05-12T15:50:46.287Z,81.63
2023-05-12T15:53:16.283Z,81.86
2023-05-12T15:55:45.033Z,83.39
2023-05-12T15:58:13.382Z,84.15
2023-05-12T16:00:42.101Z,87.84
2023-05-12T16:03:11.007Z,84.55
2023-05-12T16:05:41.229Z,88.99
2023-05-12T16:08:09.522Z,90.42
2023-05-12T16:10:39.436Z,88.71
2023-05-12T16:13:07.790Z,86.71
2023-05-12T16:15:36.304Z,89.89
2023-05-12T16:18:09.907Z,91.96
2023-05-12T16:20:41.033Z,92.86
2023-05-12T16:23:09.622Z,88.82
2023-05-12T16:25:39.529Z,90.64
2023-05-12T16:28:07.910Z,91.36
2023-05-12T16:30:37.039Z,91.45
2023-05-12T16:33:07.153Z,94.21
2023-05-12T16:35:35.705Z,90.85
2023-05-12T16:38:04.340Z,89.64
2023-05-12T16:40:32.618Z,90.52
2023-05-12T16:43:02.295Z,92.17
2023-05-12T16:45:31.092Z,91.15
2023-05-12T16:47:59.432Z,91.74
2023-05-12T16:50:27.701Z,93.40
2023-05-12T16:52:56.370Z,94.60
2023-05-12T16:55:24.893Z,95.82
2023-05-12T16:57:53.279Z,93.48
2023-05-12T17:00:23.359Z,94.22
2023-05-12T17:02:51.693Z,93.67
2023-05-12T17:05:20.225Z,90.44
2023-05-12T17:07:49.013Z,91.60
2023-05-12T17:10:17.388Z,89.91
2023-05-12T17:12:45.695Z,91.19
2023-05-12T17:15:14.657Z,90.79
2023-05-12T17:17:44.436Z,92.89
2023-05-12T17:20:13.831Z,93.70
2023-05-12T17:22:44.445Z,96.12
2023-05-12T17:25:12.797Z,91.68
2023-05-12T17:27:41.288Z,94.25
2023-05-12T17:30:10.445Z,91.99
2023-05-12T17:32:38.843Z,90.68
2023-05-12T17:35:09.184Z,94.91
2023-05-12T17:37:38.303Z,92.96
2023-05-12T17:40:08.121Z,94.03
2023-05-12T17:42:36.448Z,91.73
2023-05-12T17:45:07.128Z,90.62
2023-05-12T17:47:35.516Z,92.56
2023-05-12T17:50:03.897Z,90.34
2023-05-12T17:52:33.955Z,90.71
2023-05-12T17:55:02.273Z,91.27
2023-05-12T17:57:31.361Z,91.80
2023-05-12T18:00:00.108Z,90.64
2023-05-12T18:02:29.048Z,93.03
2023-05-12T18:04:57.706Z,93.51
2023-05-12T18:07:26.509Z,95.63
2023-05-12T18:09:56.188Z,93.77
2023-05-12T18:12:24.808Z,95.71
2023-05-12T18:14:53.175Z,94.36
2023-05-12T18:17:22.014Z,91.67
2023-05-12T18:19:50.820Z,91.64
2023-05-12T18:22:19.199Z,94.30
2023-05-12T18:24:47.926Z,91.65
2023-05-12T18:27:18.982Z,94.16
2023-05-12T18:29:47.303Z,93.38
2023-05-12T18:32:15.688Z,94.40
2023-05-12T18:34:45.551Z,93.68
2023-05-12T18:37:15.507Z,92.62
2023-05-12T18:39:44.881Z,91.67
2023-05-12T18:42:13.319Z,95.94
2023-05-12T18:44:43.051Z,92.49
2023-05-12T18:47:11.690Z,93.64
2023-05-12T18:49:40.218Z,94.68
2023-05-12T18:52:09.004Z,93.96
2023-05-12T18:54:38.728Z,93.35
2023-05-12T18:57:07.237Z,94.18
2023-05-12T18:59:35.574Z,93.14
2023-05-12T19:02:05.737Z,91.53
2023-05-12T19:04:34.173Z,93.37
2023-05-12T19:07:02.733Z,92.78
2023-05-12T19:09:31.478Z,94.72
2023-05-12T19:12:05.874Z,92.88
2023-05-12T19:14:34.607Z,92.21
2023-05-12T19:17:02.894Z,92.45
2023-05-12T19:19:32.767Z,93.13
2023-05-12T19:22:01.585Z,90.77
2023-05-12T19:24:30.007Z,92.96
2023-05-12T19:26:58.557Z,89.83
2023-05-12T19:29:27.326Z,89.97
2023-05-12T19:31:55.958Z,89.85
2023-05-12T19:34:24.475Z,91.15
2023-05-12T19:36:56.111Z,89.23
2023-05-12T19:39:24.782Z,91.22
2023-05-12T19:41:53.601Z,90.58
2023-05-12T19:44:22.060Z,88.96
2023-05-12T19:46:50.959Z,89.34
2023-05-12T19:49:19.602Z,88.86
2023-05-12T19:51:48.871Z,87.98
2023-05-12T19:54:18.534Z,91.02
2023-05-12T19:56:47.136Z,89.40
2023-05-12T19:59:15.472Z,88.67
2023-05-12T20:01:43.827Z,89.04
2023-05-12T20:04:12.526Z,89.46
2023-05-12T20:06:42.281Z,91.98
2023-05-12T20:09:10.644Z,90.75
2023-05-12T20:11:40.724Z,92.02
2023-05-12T20:14:09.085Z,89.80
2023-05-12T20:16:38.292Z,89.90
2023-05-12T20:19:07.003Z,91.23
2023-05-12T20:21:35.554Z,91.13
2023-05-12T20:24:03.923Z,90.46
2023-05-12T20:26:32.714Z,89.08
2023-05-12T20:29:02.608Z,90.32
2023-05-12T20:31:31.118Z,88.26
2023-05-12T20:33:59.745Z,93.15
2023-05-12T20:36:28.104Z,93.06
2023-05-12T20:39:00.619Z,92.99
2023-05-12T20:41:29.280Z,93.08
2023-05-12T20:43:57.639Z,91.31
2023-05-12T20:46:28.262Z,91.37
2023-05-12T20:48:57.144Z,93.04
2023-05-12T20:51:25.609Z,88.93
2023-05-12T20:53:54.039Z,89.25
2023-05-12T20:56:23.225Z,88.88
2023-05-12T20:58:51.628Z,89.07
2023-05-12T21:01:20.578Z,88.01
2023-05-12T21:03:50.685Z,92.08
2023-05-12T21:06:19.663Z,90.79
2023-05-12T21:08:47.946Z,88.96
2023-05-12T21:11:17.089Z,90.62
2023-05-12T21:13:45.455Z,91.35
2023-05-12T21:16:13.866Z,91.79
2023-05-12T21:18:42.543Z,88.21
2023-05-12T21:21:12.348Z,90.70
2023-05-12T21:23:40.755Z,93.80
2023-05-12T21:26:10.473Z,90.32
2023-05-12T21:28:38.893Z,91.26
2023-05-12T21:31:07.705Z,92.40
2023-05-12T21:33:36.410Z,94.26
2023-05-12T21:36:05.131Z,95.63
2023-05-12T21:38:35.041Z,91.89
2023-05-12T21:41:03.641Z,90.12
2023-05-12T21:43:32.152Z,91.16
2023-05-12T21:46:02.728Z,93.90
2023-05-12T21:48:31.984Z,93.37
2023-05-12T21:51:00.996Z,92.50
2023-05-12T21:53:29.784Z,95.20
2023-05-12T21:56:00.037Z,92.84
2023-05-12T21:58:28.399Z,91.17
2023-05-12T22:00:56.682Z,90.97
2023-05-12T22:03:25.528Z,89.36
2023-05-12T22:05:53.926Z,90.26
2023-05-12T22:08:22.271Z,92.91
2023-05-12T22:10:50.866Z,92.40
2023-05-12T22:13:20.591Z,91.23
2023-05-12T22:15:48.938Z,91.94
2023-05-12T22:18:17.785Z,95.64
2023-05-12T22:20:46.128Z,93.19
2023-05-12T22:23:14.493Z,91.75
2023-05-12T22:25:43.052Z,91.25
2023-05-12T22:28:11.416Z,92.60
2023-05-12T22:30:41.677Z,93.67
2023-05-12T22:33:10.307Z,92.06
2023-05-12T22:35:38.624Z,90.10
2023-05-12T22:38:07.100Z,89.50
2023-05-12T22:40:36.620Z,91.25
2023-05-12T22:43:04.976Z,92.95
2023-05-12T22:45:33.304Z,93.85
2023-05-12T22:48:05.526Z,91.96
2023-05-12T22:50:33.896Z,91.37
2023-05-12T22:53:02.526Z,93.64
2023-05-12T22:55:31.408Z,90.57
2023-05-12T22:58:00.287Z,88.30
2023-05-12T23:00:28.856Z,88.32
2023-05-12T23:02:57.298Z,91.46
2023-05-12T23:05:27.074Z,90.45
2023-05-12T23:07:55.939Z,94.94
2023-05-12T23:10:24.397Z,91.79
2023-05-12T23:12:52.821Z,94.05
2023-05-12T23:15:21.492Z,91.57
2023-05-12T23:17:49.854Z,91.86
2023-05-12T23:20:18.203Z,92.78
2023-05-12T23:22:48.276Z,92.73
2023-05-12T23:25:16.576Z,93.08
2023-05-12T23:27:44.902Z,93.11
2023-05-12T23:30:16.262Z,90.76
2023-05-12T23:32:44.689Z,87.91
2023-05-12T23:35:13.226Z,88.14
2023-05-12T23:37:41.890Z,87.99
2023-05-12T23:40:12.293Z,89.85
2023-05-12T23:42:40.613Z,89.29
2023-05-12T23:45:09.676Z,90.00
2023-05-12T23:47:38.051Z,87.72
2023-05-12T23:50:06.973Z,90.81
2023-05-12T23:52:35.635Z,91.33
2023-05-12T23:55:04.042Z,88.08
2023-05-12T23:57:33.694Z,90.82
